This is the latest recevied weather packets stored in our database for station/object EA7RX-4. If no packets are shown the sender has not sent any weather packets the latest 10 day(s).
| Time | Temp. | Humidity | Pressure | Rain* | Wind** | Luminosity | Snow |
|---|---|---|---|---|---|---|---|
| 1787936403 | 23.33° C | 33% | 1019.4 hPa | 0 mm | - | 204 W/m² | - |
| 1787935803 | 23.33° C | 33% | 1019.4 hPa | 0 mm | - | 232 W/m² | - |
| 1787935203 | 23.89° C | 32% | 1019.7 hPa | 0 mm | - | 260 W/m² | - |
| 1787934603 | 23.33° C | 33% | 1019.5 hPa | 0 mm | - | 295 W/m² | - |
| 1787934003 | 23.89° C | 33% | 1019.5 hPa | 0 mm | - | 336 W/m² | - |
| 1787933403 | 23.33° C | 33% | 1019.7 hPa | 0 mm | - | 373 W/m² | - |
| 1787932803 | 22.78° C | 33% | 1019.5 hPa | 0 mm | - | 408 W/m² | - |
| 1787932203 | 22.78° C | 34% | 1019.7 hPa | 0 mm | - | 446 W/m² | - |
| 1787931603 | 23.89° C | 32% | 1019.5 hPa | 0 mm | - | 487 W/m² | - |
| 1787931003 | 23.33° C | 32% | 1019.9 hPa | 0 mm | - | 521 W/m² | - |
| 1787930403 | 23.89° C | 32% | 1019.7 hPa | 0 mm | - | 552 W/m² | - |
| 1787929803 | 23.33° C | 32% | 1019.8 hPa | 0 mm | - | 582 W/m² | - |
| 1787929203 | 22.78° C | 33% | 1019.7 hPa | 0 mm | - | 607 W/m² | - |
| 1787928603 | 22.78° C | 33% | 1019.8 hPa | 0 mm | - | 635 W/m² | - |
| 1787928003 | 23.33° C | 31% | 1019.8 hPa | 0 mm | - | 664 W/m² | - |
| 1787927403 | 22.22° C | 34% | 1020 hPa | 0 mm | - | 693 W/m² | - |
| 1787926803 | 22.78° C | 33% | 1019.9 hPa | 0 mm | - | 720 W/m² | - |
| 1787926203 | 22.22° C | 35% | 1020.1 hPa | 0 mm | - | 744 W/m² | - |
| 1787925603 | 22.22° C | 33% | 1020.2 hPa | 0 mm | - | 764 W/m² | - |
| 1787925003 | 21.67° C | 34% | 1020.1 hPa | 0 mm | - | 785 W/m² | - |
| 1787924403 | 21.11° C | 35% | 1020.2 hPa | 0 mm | - | 804 W/m² | - |
| 1787923803 | 21.67° C | 34% | 1020.2 hPa | 0 mm | - | 819 W/m² | - |
| 1787923203 | 21.67° C | 34% | 1020.4 hPa | 0 mm | - | 834 W/m² | - |
| 1787922603 | 21.11° C | 35% | 1020.5 hPa | 0 mm | - | 846 W/m² | - |
| 1787922003 | 20.56° C | 35% | 1020.3 hPa | 0 mm | - | 855 W/m² | - |
* Rain latest hour (hover to see other rain measurements)
** Current wind speed in m/s (hover to see current wind gust speed)